createdAt,value
2018-07-24T00:01:30.826Z,99.90
2018-07-24T00:03:59.020Z,99.90
2018-07-24T00:06:27.180Z,99.90
2018-07-24T00:08:55.363Z,99.90
2018-07-24T00:11:23.537Z,99.90
2018-07-24T00:13:51.758Z,99.90
2018-07-24T00:18:47.991Z,99.90
2018-07-24T00:23:44.120Z,99.90
2018-07-24T00:26:12.446Z,99.90
2018-07-24T00:28:40.613Z,99.90
2018-07-24T00:31:08.892Z,99.90
2018-07-24T00:33:37.069Z,99.90
2018-07-24T00:36:05.276Z,99.90
2018-07-24T00:38:33.502Z,99.90
2018-07-24T00:41:01.694Z,99.90
2018-07-24T00:43:29.926Z,99.90
2018-07-24T00:48:26.250Z,99.90
2018-07-24T00:50:54.414Z,99.90
2018-07-24T00:53:22.638Z,99.90
2018-07-24T00:55:50.895Z,99.90
2018-07-24T00:58:19.219Z,99.90
2018-07-24T01:00:47.374Z,99.90
2018-07-24T01:03:15.610Z,99.90
2018-07-24T01:05:43.777Z,99.90
2018-07-24T01:08:11.926Z,99.90
2018-07-24T01:13:08.166Z,99.90
2018-07-24T01:15:36.340Z,99.90
2018-07-24T01:18:04.515Z,99.90
2018-07-24T01:20:32.843Z,99.90
2018-07-24T01:23:01.606Z,99.90
2018-07-24T01:25:30.063Z,99.90
2018-07-24T01:27:58.618Z,99.90
2018-07-24T01:30:26.744Z,99.90
2018-07-24T01:32:54.890Z,99.90
2018-07-24T01:35:23.265Z,99.90
2018-07-24T01:40:50.135Z,99.90
2018-07-24T01:43:18.528Z,99.90
2018-07-24T01:45:46.732Z,99.90
2018-07-24T01:48:14.893Z,99.90
2018-07-24T01:50:43.073Z,99.90
2018-07-24T01:53:11.248Z,99.90
2018-07-24T01:55:39.454Z,99.90
2018-07-24T01:58:07.660Z,99.90
2018-07-24T02:00:35.856Z,99.90
2018-07-24T02:03:04.046Z,99.90
2018-07-24T02:05:32.222Z,99.90
2018-07-24T02:08:00.407Z,99.90
2018-07-24T02:12:56.503Z,99.90
2018-07-24T02:15:24.713Z,99.90
2018-07-24T02:17:52.899Z,99.90
2018-07-24T02:20:21.152Z,99.90
2018-07-24T02:22:49.372Z,99.90
2018-07-24T02:25:17.530Z,99.90
2018-07-24T02:27:45.751Z,99.90
2018-07-24T02:30:13.963Z,99.90
2018-07-24T02:35:10.209Z,99.90
2018-07-24T02:37:38.399Z,99.90
2018-07-24T02:40:06.591Z,99.90
2018-07-24T02:42:34.781Z,99.90
2018-07-24T02:45:02.971Z,99.90
2018-07-24T02:47:31.180Z,99.90
2018-07-24T02:49:59.380Z,99.90
2018-07-24T02:52:27.554Z,99.90
2018-07-24T02:54:55.727Z,99.90
2018-07-24T02:57:23.932Z,99.90
2018-07-24T02:59:52.103Z,99.90
2018-07-24T03:02:20.581Z,99.90
2018-07-24T03:04:48.768Z,99.90
2018-07-24T03:07:16.934Z,99.90
2018-07-24T03:09:45.803Z,99.90
2018-07-24T03:12:13.997Z,99.90
2018-07-24T03:14:42.243Z,99.90
2018-07-24T03:17:10.371Z,99.90
2018-07-24T03:19:38.560Z,99.90
2018-07-24T03:22:06.739Z,99.90
2018-07-24T03:24:35.159Z,99.90
2018-07-24T03:27:03.379Z,99.90
2018-07-24T03:29:31.566Z,99.90
2018-07-24T03:31:59.745Z,99.90
2018-07-24T03:34:28.035Z,99.90
2018-07-24T03:36:56.208Z,99.90
2018-07-24T03:39:24.360Z,99.90
2018-07-24T03:41:52.537Z,99.90
2018-07-24T03:44:20.713Z,99.90
2018-07-24T03:46:48.922Z,99.90
2018-07-24T03:49:17.089Z,99.90
2018-07-24T03:51:45.263Z,99.90
2018-07-24T03:54:13.559Z,99.90
2018-07-24T03:56:41.727Z,99.90
2018-07-24T03:59:09.952Z,99.90
2018-07-24T04:01:38.151Z,99.90
2018-07-24T04:04:06.303Z,99.90
2018-07-24T04:06:34.470Z,99.90
2018-07-24T04:09:02.880Z,99.90
2018-07-24T04:11:31.076Z,99.90
2018-07-24T04:13:59.249Z,99.90
2018-07-24T04:16:27.455Z,99.90
2018-07-24T04:18:55.635Z,99.90
2018-07-24T04:21:23.982Z,99.90
2018-07-24T04:23:52.163Z,99.90
2018-07-24T04:26:20.455Z,99.90
2018-07-24T04:28:48.610Z,99.90
2018-07-24T04:31:16.903Z,99.90
2018-07-24T04:33:45.096Z,99.90
2018-07-24T04:36:13.290Z,99.90
2018-07-24T04:38:41.479Z,99.90
2018-07-24T04:41:09.698Z,99.90
2018-07-24T04:43:37.883Z,99.90
2018-07-24T04:46:06.069Z,99.90
2018-07-24T04:48:34.348Z,99.90
2018-07-24T04:51:02.504Z,99.90
2018-07-24T04:53:30.704Z,99.90
2018-07-24T04:55:59.070Z,99.90
2018-07-24T04:58:27.269Z,99.90
2018-07-24T05:00:55.546Z,99.90
2018-07-24T05:03:23.885Z,99.90
2018-07-24T05:05:52.043Z,99.90
2018-07-24T05:08:20.411Z,99.90
2018-07-24T05:10:48.751Z,99.90
2018-07-24T05:13:17.004Z,99.90
2018-07-24T05:15:45.244Z,99.90
2018-07-24T05:18:13.427Z,99.90
2018-07-24T05:20:41.617Z,99.90
2018-07-24T05:23:09.784Z,99.90
2018-07-24T05:25:37.967Z,99.90
2018-07-24T05:28:06.122Z,99.90
2018-07-24T05:30:34.290Z,99.90
2018-07-24T05:33:02.476Z,99.90
2018-07-24T05:35:30.648Z,99.90
2018-07-24T05:37:58.984Z,99.90
2018-07-24T05:42:55.112Z,99.90
2018-07-24T05:45:23.534Z,99.90
2018-07-24T05:47:51.686Z,99.90
2018-07-24T05:50:20.692Z,99.90
2018-07-24T05:52:49.023Z,99.90
2018-07-24T05:55:17.215Z,99.90
2018-07-24T05:57:45.562Z,99.90
2018-07-24T06:00:13.793Z,99.90
2018-07-24T06:02:41.982Z,99.90
2018-07-24T06:05:10.182Z,99.90
2018-07-24T06:07:38.353Z,99.90
2018-07-24T06:10:06.535Z,99.90
2018-07-24T06:12:34.704Z,99.90
2018-07-24T06:15:03.177Z,99.90
2018-07-24T06:17:31.449Z,99.90
2018-07-24T06:19:59.578Z,99.90
2018-07-24T06:22:27.747Z,99.90
2018-07-24T06:24:55.940Z,99.90
2018-07-24T06:27:24.106Z,99.90
2018-07-24T06:29:52.290Z,99.90
2018-07-24T06:32:20.473Z,99.90
2018-07-24T06:34:50.904Z,99.90
2018-07-24T06:37:21.570Z,99.90
2018-07-24T06:39:49.791Z,99.90
2018-07-24T06:42:17.942Z,99.90
2018-07-24T06:44:46.118Z,99.90
2018-07-24T06:47:14.263Z,99.90
2018-07-24T06:49:42.477Z,99.90
2018-07-24T06:52:10.640Z,99.90
2018-07-24T06:54:38.800Z,99.90
2018-07-24T06:57:07.090Z,99.60
2018-07-24T06:59:35.228Z,98.20
2018-07-24T07:02:03.451Z,97.70
2018-07-24T07:04:31.622Z,96.90
2018-07-24T07:06:59.811Z,95.30
2018-07-24T07:09:27.996Z,95.40
2018-07-24T07:11:56.160Z,94.00
2018-07-24T07:14:24.322Z,93.80
2018-07-24T07:16:52.479Z,92.80
2018-07-24T07:19:20.904Z,92.20
2018-07-24T07:21:49.067Z,91.70
2018-07-24T07:24:17.404Z,90.70
2018-07-24T07:26:45.597Z,90.10
2018-07-24T07:29:13.822Z,87.80
2018-07-24T07:31:41.949Z,86.50
2018-07-24T07:34:10.137Z,84.90
2018-07-24T07:39:08.271Z,80.80
2018-07-24T07:41:36.379Z,79.70
2018-07-24T07:46:32.496Z,77.30
2018-07-24T07:49:00.796Z,76.00
2018-07-24T07:53:56.912Z,72.00
2018-07-24T07:56:25.062Z,73.30
2018-07-24T07:58:53.401Z,72.60
2018-07-24T08:01:21.544Z,71.20
2018-07-24T08:03:49.702Z,70.30
2018-07-24T08:06:17.895Z,66.40
2018-07-24T08:08:46.067Z,66.20
2018-07-24T08:11:14.247Z,66.70
2018-07-24T08:13:42.432Z,65.60
2018-07-24T08:16:10.612Z,63.40
2018-07-24T08:18:38.895Z,61.30
2018-07-24T08:21:07.093Z,59.40
2018-07-24T08:23:35.257Z,58.50
2018-07-24T08:26:03.504Z,58.10
2018-07-24T08:28:31.767Z,57.90
2018-07-24T08:30:59.956Z,55.50
2018-07-24T08:33:28.165Z,54.20
2018-07-24T08:35:56.289Z,54.40
2018-07-24T08:38:24.450Z,53.40
2018-07-24T08:40:52.695Z,54.00
2018-07-24T08:43:20.885Z,54.60
2018-07-24T08:45:49.050Z,52.80
2018-07-24T08:48:25.275Z,52.50
2018-07-24T08:50:53.459Z,52.20
2018-07-24T08:53:21.824Z,49.60
2018-07-24T08:55:50.313Z,50.30
2018-07-24T08:58:18.194Z,49.40
2018-07-24T09:00:46.425Z,48.90
2018-07-24T09:03:14.653Z,47.90
2018-07-24T09:05:42.755Z,48.80
2018-07-24T09:08:10.927Z,47.90
2018-07-24T09:10:39.103Z,46.80
2018-07-24T09:13:07.278Z,47.80
2018-07-24T09:15:35.513Z,48.50
2018-07-24T09:18:03.596Z,47.30
2018-07-24T09:20:31.766Z,47.10
2018-07-24T09:23:00.165Z,46.20
2018-07-24T09:25:28.363Z,46.70
2018-07-24T09:27:56.512Z,46.50
2018-07-24T09:30:24.748Z,45.30
2018-07-24T09:32:52.919Z,45.40
2018-07-24T09:35:21.107Z,43.30
2018-07-24T09:37:49.262Z,43.60
2018-07-24T09:40:17.628Z,42.00
2018-07-24T09:45:13.722Z,41.00
2018-07-24T09:47:41.921Z,42.30
2018-07-24T09:50:10.047Z,42.00
2018-07-24T09:52:38.323Z,42.20
2018-07-24T09:55:06.480Z,41.30
2018-07-24T09:57:34.633Z,42.30
2018-07-24T10:00:02.804Z,42.90
2018-07-24T10:04:58.896Z,41.90
2018-07-24T10:07:27.079Z,41.60
2018-07-24T10:09:55.595Z,41.60
2018-07-24T10:12:23.795Z,40.90
2018-07-24T10:14:51.971Z,40.60
2018-07-24T10:17:20.151Z,41.00
2018-07-24T10:19:48.317Z,40.40
2018-07-24T10:22:16.508Z,40.50
2018-07-24T10:24:44.635Z,40.70
2018-07-24T10:27:12.815Z,39.70
2018-07-24T10:29:40.988Z,40.60
2018-07-24T10:32:09.148Z,42.40
2018-07-24T10:34:37.339Z,43.00
2018-07-24T10:37:05.958Z,40.40
2018-07-24T10:39:34.184Z,40.00
2018-07-24T10:42:02.368Z,39.40
2018-07-24T10:44:30.540Z,40.50
2018-07-24T10:46:58.730Z,40.50
2018-07-24T10:49:26.903Z,39.90
2018-07-24T10:51:55.058Z,39.00
2018-07-24T10:54:23.207Z,38.80
2018-07-24T10:56:51.435Z,38.30
2018-07-24T10:59:19.733Z,39.40
2018-07-24T11:01:47.888Z,38.40
2018-07-24T11:04:16.222Z,38.70
2018-07-24T11:06:44.381Z,37.80
2018-07-24T11:09:12.540Z,38.40
2018-07-24T11:11:40.714Z,39.20
2018-07-24T11:14:08.862Z,38.40
2018-07-24T11:16:37.056Z,38.10
2018-07-24T11:19:05.280Z,37.90
2018-07-24T11:21:33.605Z,37.90
2018-07-24T11:24:01.751Z,38.50
2018-07-24T11:26:30.258Z,37.50
2018-07-24T11:28:58.433Z,38.80
2018-07-24T11:31:26.628Z,39.00
2018-07-24T11:33:54.807Z,39.50
2018-07-24T11:36:23.083Z,38.10
2018-07-24T11:38:51.181Z,38.20
2018-07-24T11:41:19.498Z,36.90
2018-07-24T11:43:47.667Z,37.30
2018-07-24T11:46:15.821Z,37.40
2018-07-24T11:48:43.987Z,37.00
2018-07-24T11:51:12.248Z,36.00
2018-07-24T11:53:40.408Z,37.10
2018-07-24T11:56:09.067Z,36.60
2018-07-24T11:58:37.320Z,36.20
2018-07-24T12:01:05.433Z,37.40
2018-07-24T12:03:33.660Z,35.90
2018-07-24T12:06:01.780Z,35.70
2018-07-24T12:08:29.944Z,35.50
2018-07-24T12:10:58.090Z,36.80
2018-07-24T12:13:26.353Z,36.10
2018-07-24T12:15:54.515Z,36.30
2018-07-24T12:18:22.668Z,34.70
2018-07-24T12:20:51.195Z,34.10
2018-07-24T12:23:19.331Z,34.20
2018-07-24T12:25:47.494Z,33.20
2018-07-24T12:28:15.692Z,32.80
2018-07-24T12:30:43.859Z,34.30
2018-07-24T12:33:12.035Z,33.00
2018-07-24T12:35:40.209Z,33.50
2018-07-24T12:38:08.364Z,33.40
2018-07-24T12:40:36.524Z,32.80
2018-07-24T12:43:04.679Z,32.70
2018-07-24T12:45:32.867Z,32.40
2018-07-24T12:48:01.383Z,32.90
2018-07-24T12:50:29.549Z,32.00
2018-07-24T12:52:58.006Z,32.00
2018-07-24T12:55:26.203Z,33.20
2018-07-24T12:57:54.453Z,32.60
2018-07-24T13:00:22.735Z,32.50
2018-07-24T13:02:50.892Z,32.30
2018-07-24T13:05:19.049Z,32.30
2018-07-24T13:07:47.234Z,32.20
2018-07-24T13:10:15.428Z,32.90
2018-07-24T13:12:43.615Z,31.90
2018-07-24T13:15:11.795Z,33.00
2018-07-24T13:17:40.132Z,34.20
2018-07-24T13:20:08.316Z,33.70
2018-07-24T13:22:36.482Z,33.60
2018-07-24T13:25:04.765Z,32.80
2018-07-24T13:27:32.948Z,32.80
2018-07-24T13:30:01.275Z,33.60
2018-07-24T13:32:29.432Z,31.70
2018-07-24T13:34:57.605Z,31.60
2018-07-24T13:37:25.767Z,31.80
2018-07-24T13:39:53.944Z,30.60
2018-07-24T13:42:22.172Z,30.30
2018-07-24T13:47:18.465Z,30.00
2018-07-24T13:49:46.621Z,29.90
2018-07-24T13:52:14.775Z,29.40
2018-07-24T13:54:42.935Z,29.40
2018-07-24T13:57:11.267Z,29.80
2018-07-24T13:59:39.444Z,28.60
2018-07-24T14:02:07.599Z,30.00
2018-07-24T14:04:35.886Z,29.30
2018-07-24T14:07:04.055Z,29.50
2018-07-24T14:09:32.232Z,28.90
2018-07-24T14:12:00.500Z,28.80
2018-07-24T14:14:28.668Z,29.20
2018-07-24T14:16:56.843Z,29.40
2018-07-24T14:21:53.027Z,28.70
2018-07-24T14:24:21.159Z,28.70
2018-07-24T14:26:49.330Z,28.00
2018-07-24T14:29:17.478Z,27.80
2018-07-24T14:31:45.634Z,28.70
2018-07-24T14:34:13.844Z,28.00
2018-07-24T14:36:42.035Z,27.40
2018-07-24T14:39:12.145Z,27.80
2018-07-24T14:41:40.326Z,28.40
2018-07-24T14:44:08.488Z,27.70
2018-07-24T14:46:37.217Z,27.10
2018-07-24T14:49:05.492Z,27.80
2018-07-24T14:51:33.919Z,28.10
2018-07-24T14:54:02.117Z,27.40
2018-07-24T14:56:30.273Z,27.70
2018-07-24T14:58:58.525Z,27.20
2018-07-24T15:01:26.701Z,27.30
2018-07-24T15:03:54.883Z,26.90
2018-07-24T15:06:23.198Z,26.80
2018-07-24T15:08:51.312Z,27.10
2018-07-24T15:11:19.540Z,27.00
2018-07-24T15:13:50.582Z,27.30
2018-07-24T15:16:20.135Z,27.60
2018-07-24T15:18:48.343Z,27.80
2018-07-24T15:21:16.591Z,27.50
2018-07-24T15:23:44.754Z,27.50
2018-07-24T15:26:12.958Z,27.10
2018-07-24T15:28:41.286Z,26.80
2018-07-24T15:31:09.567Z,27.00
2018-07-24T15:33:37.963Z,27.40
2018-07-24T15:36:06.130Z,27.30
2018-07-24T15:38:35.506Z,26.60
2018-07-24T15:41:03.762Z,28.00
2018-07-24T15:43:32.243Z,26.70
2018-07-24T15:46:00.485Z,27.20
2018-07-24T15:48:28.645Z,27.20
2018-07-24T15:50:56.977Z,27.60
2018-07-24T15:53:25.206Z,27.70
2018-07-24T15:55:53.405Z,27.30
2018-07-24T15:58:21.687Z,28.00
2018-07-24T16:00:49.870Z,27.90
2018-07-24T16:03:18.048Z,27.60
2018-07-24T16:05:46.229Z,27.00
2018-07-24T16:08:14.419Z,27.20
2018-07-24T16:10:42.640Z,27.30
2018-07-24T16:13:11.006Z,27.50
2018-07-24T16:15:39.289Z,27.70
2018-07-24T16:18:07.412Z,27.60
2018-07-24T16:20:35.579Z,27.80
2018-07-24T16:23:04.068Z,27.30
2018-07-24T16:25:33.015Z,26.80
2018-07-24T16:28:01.949Z,27.70
2018-07-24T16:30:30.216Z,27.70
2018-07-24T16:32:58.484Z,27.60
2018-07-24T16:35:26.699Z,28.20
2018-07-24T16:37:54.892Z,27.80
2018-07-24T16:40:23.251Z,27.70
2018-07-24T16:42:51.457Z,28.40
2018-07-24T16:45:19.624Z,29.60
2018-07-24T16:47:47.873Z,28.70
2018-07-24T16:50:16.119Z,27.90
2018-07-24T16:52:44.311Z,28.90
2018-07-24T16:55:12.496Z,28.50
2018-07-24T16:57:40.736Z,30.00
2018-07-24T17:00:08.901Z,31.80
2018-07-24T17:02:37.111Z,33.10
2018-07-24T17:05:05.362Z,32.60
2018-07-24T17:07:33.603Z,32.80
2018-07-24T17:10:01.796Z,34.20
2018-07-24T17:12:30.117Z,36.10
2018-07-24T17:14:58.325Z,34.60
2018-07-24T17:17:26.473Z,36.00
2018-07-24T17:19:54.698Z,38.50
2018-07-24T17:22:22.983Z,40.50
2018-07-24T17:24:51.216Z,40.70
2018-07-24T17:27:19.444Z,40.70
2018-07-24T17:29:47.707Z,41.40
2018-07-24T17:32:15.960Z,41.40
2018-07-24T17:34:44.255Z,42.50
2018-07-24T17:37:12.504Z,42.40
2018-07-24T17:39:40.787Z,43.00
2018-07-24T17:42:09.390Z,43.10
2018-07-24T17:44:37.539Z,43.50
2018-07-24T17:47:05.740Z,44.30
2018-07-24T17:49:33.970Z,45.00
2018-07-24T17:52:02.125Z,44.00
2018-07-24T17:54:30.279Z,45.10
2018-07-24T17:59:26.432Z,45.20
2018-07-24T18:01:54.600Z,45.20
2018-07-24T18:04:22.831Z,46.10
2018-07-24T18:06:51.167Z,46.90
2018-07-24T18:09:19.320Z,47.20
2018-07-24T18:11:47.480Z,47.90
2018-07-24T18:14:16.878Z,47.90
2018-07-24T18:16:45.039Z,48.40
2018-07-24T18:19:13.203Z,47.90
2018-07-24T18:21:41.393Z,48.20
2018-07-24T18:24:09.657Z,48.20
2018-07-24T18:26:38.680Z,48.20
2018-07-24T18:29:06.826Z,48.50
2018-07-24T18:31:35.154Z,48.40
2018-07-24T18:34:03.344Z,48.90
2018-07-24T18:36:31.536Z,49.10
2018-07-24T18:38:59.915Z,49.90
2018-07-24T18:41:28.079Z,51.00
2018-07-24T18:43:56.279Z,52.80
2018-07-24T18:46:25.057Z,53.50
2018-07-24T18:48:53.254Z,54.30
2018-07-24T18:51:22.019Z,54.70
2018-07-24T18:53:50.234Z,55.20
2018-07-24T18:56:18.520Z,55.90
2018-07-24T18:58:46.902Z,55.70
2018-07-24T19:01:15.207Z,55.70
2018-07-24T19:03:43.715Z,56.10
2018-07-24T19:06:11.985Z,56.40
2018-07-24T19:08:41.163Z,57.00
2018-07-24T19:11:09.454Z,57.40
2018-07-24T19:13:38.108Z,58.40
2018-07-24T19:16:06.594Z,59.40
2018-07-24T19:18:34.778Z,60.20
2018-07-24T19:21:03.319Z,61.50
2018-07-24T19:23:32.099Z,63.10
2018-07-24T19:26:00.743Z,63.60
2018-07-24T19:28:28.956Z,65.20
2018-07-24T19:30:59.849Z,65.90
2018-07-24T19:33:30.112Z,66.70
2018-07-24T19:35:58.683Z,67.20
2018-07-24T19:38:26.977Z,67.30
2018-07-24T19:40:55.690Z,67.70
2018-07-24T19:43:24.050Z,68.90
2018-07-24T19:45:52.477Z,70.70
2018-07-24T19:48:20.804Z,71.90
2018-07-24T19:50:48.958Z,73.10
2018-07-24T19:53:17.284Z,74.50
2018-07-24T19:55:45.543Z,74.30
2018-07-24T19:58:14.047Z,74.50
2018-07-24T20:00:42.484Z,75.60
2018-07-24T20:03:10.814Z,76.10
2018-07-24T20:05:39.317Z,77.90
2018-07-24T20:08:07.874Z,80.00
2018-07-24T20:10:36.224Z,81.40
2018-07-24T20:13:05.923Z,82.30
2018-07-24T20:15:34.584Z,83.30
2018-07-24T20:18:03.240Z,85.10
2018-07-24T20:20:31.468Z,86.30
2018-07-24T20:22:59.926Z,86.80
2018-07-24T20:25:28.004Z,87.60
2018-07-24T20:27:56.295Z,88.50
2018-07-24T20:30:24.580Z,89.10
2018-07-24T20:32:53.080Z,90.40
2018-07-24T20:35:21.530Z,90.70
2018-07-24T20:37:49.804Z,90.80
2018-07-24T20:40:18.510Z,91.20
2018-07-24T20:42:47.270Z,91.20
2018-07-24T20:45:15.696Z,91.70
2018-07-24T20:47:44.073Z,92.10
2018-07-24T20:50:12.542Z,92.60
2018-07-24T20:52:40.938Z,93.00
2018-07-24T20:55:09.362Z,93.20
2018-07-24T20:57:37.722Z,93.70
2018-07-24T21:00:06.288Z,94.40
2018-07-24T21:02:34.563Z,94.50
2018-07-24T21:05:03.070Z,94.80
2018-07-24T21:07:31.670Z,95.30
2018-07-24T21:09:59.949Z,95.40
2018-07-24T21:12:28.254Z,95.30
2018-07-24T21:14:56.542Z,95.20
2018-07-24T21:17:24.785Z,95.20
2018-07-24T21:19:52.987Z,95.50
2018-07-24T21:22:21.285Z,96.00
2018-07-24T21:24:49.576Z,96.20
2018-07-24T21:27:17.936Z,96.50
2018-07-24T21:29:46.103Z,96.60
2018-07-24T21:32:14.308Z,96.70
2018-07-24T21:34:42.662Z,96.80
2018-07-24T21:37:10.760Z,96.70
2018-07-24T21:39:38.948Z,96.60
2018-07-24T21:42:07.492Z,97.00
2018-07-24T21:44:35.715Z,97.50
2018-07-24T21:47:03.870Z,97.60
2018-07-24T21:49:32.096Z,97.70
2018-07-24T21:52:00.304Z,98.50
2018-07-24T21:54:28.538Z,99.00
2018-07-24T21:56:56.769Z,99.50
2018-07-24T21:59:24.990Z,99.50
2018-07-24T22:01:53.172Z,99.80
2018-07-24T22:04:21.397Z,99.90
2018-07-24T22:06:49.590Z,99.90
2018-07-24T22:09:17.807Z,99.90
2018-07-24T22:11:45.956Z,99.90
2018-07-24T22:14:14.387Z,99.90
2018-07-24T22:16:42.599Z,99.90
2018-07-24T22:19:10.902Z,99.90
2018-07-24T22:21:39.059Z,99.90
2018-07-24T22:24:07.238Z,99.90
2018-07-24T22:26:35.403Z,99.90
2018-07-24T22:29:03.555Z,99.90
2018-07-24T22:31:31.707Z,99.90
2018-07-24T22:33:59.879Z,99.90
2018-07-24T22:36:28.045Z,99.90
2018-07-24T22:38:56.219Z,99.90
2018-07-24T22:41:24.376Z,99.90
2018-07-24T22:43:52.554Z,99.90
2018-07-24T22:46:20.739Z,99.90
2018-07-24T22:48:48.915Z,99.90
2018-07-24T22:51:17.075Z,99.90
2018-07-24T22:53:45.243Z,99.90
2018-07-24T22:56:13.415Z,99.90
2018-07-24T22:58:41.582Z,99.90
2018-07-24T23:01:09.759Z,99.90
2018-07-24T23:03:37.936Z,99.90
2018-07-24T23:06:06.255Z,99.90
2018-07-24T23:08:34.430Z,99.90
2018-07-24T23:11:02.591Z,99.90
2018-07-24T23:13:30.747Z,99.90
2018-07-24T23:15:58.928Z,99.90
2018-07-24T23:18:27.089Z,99.90
2018-07-24T23:20:55.250Z,99.90
2018-07-24T23:23:23.402Z,99.90
2018-07-24T23:25:51.558Z,99.90
2018-07-24T23:28:19.723Z,99.90
2018-07-24T23:30:47.893Z,99.90
2018-07-24T23:33:16.086Z,99.90
2018-07-24T23:35:44.239Z,99.90
2018-07-24T23:38:12.411Z,99.90
2018-07-24T23:40:40.570Z,99.90
2018-07-24T23:43:08.742Z,99.90
2018-07-24T23:45:36.926Z,99.90
2018-07-24T23:48:05.339Z,99.90
2018-07-24T23:50:33.521Z,99.90
2018-07-24T23:53:01.673Z,99.90
2018-07-24T23:55:29.845Z,99.90
2018-07-24T23:57:57.995Z,99.90
